Time;durP1;ratioP1;P1;durP2;ratioP2;P2;SDS_P1;SDS_P2;PMS_P1;PMS_P2;Temp;Humidity;BMP_temperature;BMP_pressure;BME280_temperature;BME280_humidity;BME280_pressure;Samples;Min_cycle;Max_cycle;Signal;HPM_P1;HPM_P2
2024/03/25 00:01:05;;;;;;;3.53;1.07;;;5.50;99.90;;;;;;4965733;28;20306;-82
2024/03/25 00:03:31;;;;;;;1.10;1.00;;;5.50;99.90;;;;;;4966166;28;20194;-83
2024/03/25 00:05:58;;;;;;;1.63;1.53;;;5.40;99.90;;;;;;4966122;28;20197;-83
2024/03/25 00:08:25;;;;;;;3.70;2.67;;;5.40;99.90;;;;;;4959233;28;20222;-82
2024/03/25 00:10:52;;;;;;;1.50;1.42;;;5.40;99.90;;;;;;4957426;28;20229;-82
2024/03/25 00:13:19;;;;;;;0.50;0.40;;;5.30;99.90;;;;;;4957400;28;20208;-81
2024/03/25 00:15:47;;;;;;;0.90;0.90;;;5.30;99.90;;;;;;4957347;28;20195;-82
2024/03/25 00:18:12;;;;;;;1.80;1.13;;;5.30;99.90;;;;;;4956940;28;20252;-83
2024/03/25 00:20:39;;;;;;;6.67;4.10;;;5.40;99.90;;;;;;4956955;28;20218;-82
2024/03/25 00:23:05;;;;;;;1.60;1.50;;;5.40;99.90;;;;;;4957000;28;20202;-82
2024/03/25 00:25:33;;;;;;;2.30;2.10;;;5.40;99.90;;;;;;4956930;28;20221;-82
2024/03/25 00:27:59;;;;;;;2.45;2.25;;;5.30;99.90;;;;;;4956675;28;20462;-82
2024/03/25 00:30:26;;;;;;;0.50;0.40;;;5.30;99.90;;;;;;4956504;28;20209;-82
2024/03/25 00:32:52;;;;;;;2.30;1.95;;;5.30;99.90;;;;;;4956411;28;20209;-82
2024/03/25 00:35:19;;;;;;;4.93;2.00;;;5.20;99.90;;;;;;4956174;28;20293;-82
2024/03/25 00:37:45;;;;;;;8.38;3.88;;;5.10;99.90;;;;;;4956748;28;20458;-82
2024/03/25 00:40:12;;;;;;;3.13;2.40;;;5.10;99.90;;;;;;4956707;28;20237;-82
2024/03/25 00:42:39;;;;;;;11.15;7.38;;;5.10;99.90;;;;;;4958756;28;20226;-83
2024/03/25 00:45:07;;;;;;;3.10;1.98;;;5.00;99.90;;;;;;4958531;28;20250;-82
2024/03/25 00:47:33;;;;;;;2.95;2.75;;;5.00;99.90;;;;;;4958800;28;20721;-82
2024/03/25 00:50:00;;;;;;;2.70;2.60;;;5.00;99.90;;;;;;4959177;28;20201;-81
2024/03/25 00:52:26;;;;;;;13.50;7.82;;;4.90;99.90;;;;;;4959708;28;20434;-82
2024/03/25 00:54:52;;;;;;;6.00;3.20;;;4.90;99.90;;;;;;4960013;28;20201;-81
2024/03/25 00:57:18;;;;;;;1.73;1.58;;;4.80;99.90;;;;;;4960536;28;20469;-83
2024/03/25 00:59:46;;;;;;;1.27;1.17;;;4.80;99.90;;;;;;4960425;28;20198;-84
2024/03/25 01:02:12;;;;;;;3.28;3.08;;;4.80;99.90;;;;;;4960499;28;20442;-83
2024/03/25 01:04:39;;;;;;;2.90;2.30;;;4.80;99.90;;;;;;4961259;28;20190;-84
2024/03/25 01:07:05;;;;;;;3.90;3.60;;;4.80;99.90;;;;;;4961559;28;20199;-83
2024/03/25 01:09:33;;;;;;;5.00;1.87;;;4.80;99.90;;;;;;4962326;28;20201;-82
2024/03/25 01:11:58;;;;;;;1.50;1.40;;;4.70;99.90;;;;;;4963329;28;20191;-83
2024/03/25 01:14:26;;;;;;;2.73;1.43;;;4.70;99.90;;;;;;4962979;28;20194;-84
2024/03/25 01:16:53;;;;;;;0.50;0.50;;;4.70;99.90;;;;;;4962666;28;20234;-82
2024/03/25 01:19:22;;;;;;;3.17;2.53;;;4.70;99.90;;;;;;4963189;28;20257;-84
2024/03/25 01:21:48;;;;;;;1.17;1.17;;;4.80;99.90;;;;;;4959138;28;20597;-82
2024/03/25 01:24:15;;;;;;;4.05;3.78;;;4.80;99.90;;;;;;4956673;28;20250;-82
2024/03/25 01:26:41;;;;;;;2.35;2.15;;;4.80;99.90;;;;;;4956250;28;20547;-82
2024/03/25 01:29:08;;;;;;;0.63;0.60;;;4.80;99.90;;;;;;4956407;28;20221;-82
2024/03/25 01:31:34;;;;;;;0.50;0.40;;;4.80;99.90;;;;;;4956552;28;20199;-81
2024/03/25 01:34:02;;;;;;;1.00;1.00;;;4.80;99.90;;;;;;4955829;28;20225;-82
2024/03/25 01:36:28;;;;;;;0.50;0.40;;;4.80;99.90;;;;;;4956190;28;20286;-82
2024/03/25 01:38:54;;;;;;;0.70;0.50;;;4.80;99.90;;;;;;4956370;28;20683;-83
2024/03/25 01:41:22;;;;;;;4.30;0.93;;;4.70;99.90;;;;;;4956200;28;20540;-83
2024/03/25 01:43:49;;;;;;;2.13;1.88;;;4.60;99.90;;;;;;4959278;28;20201;-83
2024/03/25 01:46:16;;;;;;;0.93;0.93;;;4.60;99.90;;;;;;4961282;28;20199;-83
2024/03/25 01:48:44;;;;;;;0.50;0.50;;;4.50;99.90;;;;;;4960054;28;20622;-84
2024/03/25 01:51:12;;;;;;;0.50;0.50;;;4.50;99.90;;;;;;4959953;28;20211;-83
2024/03/25 01:53:40;;;;;;;0.50;0.50;;;4.50;99.90;;;;;;4960232;28;20202;-83
2024/03/25 01:56:07;;;;;;;13.48;0.90;;;4.40;99.90;;;;;;4960573;28;20199;-83
2024/03/25 01:58:34;;;;;;;4.72;1.80;;;4.40;99.90;;;;;;4959861;28;20751;-82
2024/03/25 02:01:01;;;;;;;2.17;1.67;;;4.40;99.90;;;;;;4958462;28;20226;-81
2024/03/25 02:03:28;;;;;;;3.70;1.30;;;4.50;99.90;;;;;;4958903;28;20229;-83
2024/03/25 02:05:58;;;;;;;1.67;1.58;;;4.50;99.90;;;;;;4960575;28;20582;-82
2024/03/25 02:08:27;;;;;;;1.88;1.77;;;4.40;99.90;;;;;;4960204;28;20214;-83
2024/03/25 02:10:54;;;;;;;0.50;0.40;;;4.40;99.90;;;;;;4960726;28;20202;-81
2024/03/25 02:13:21;;;;;;;1.70;1.60;;;4.30;99.90;;;;;;4960683;28;20209;-83
2024/03/25 02:15:51;;;;;;;0.50;0.40;;;4.30;99.90;;;;;;4960650;28;20710;-84
2024/03/25 02:18:17;;;;;;;0.50;0.40;;;4.20;99.90;;;;;;4960172;28;20226;-84
2024/03/25 02:20:43;;;;;;;0.50;0.50;;;4.20;99.90;;;;;;4960322;28;20240;-83
2024/03/25 02:23:11;;;;;;;1.80;1.23;;;4.10;99.90;;;;;;4959924;28;20265;-83
2024/03/25 02:25:40;;;;;;;11.02;3.50;;;4.10;99.90;;;;;;4960343;28;20226;-83
2024/03/25 02:28:08;;;;;;;0.60;0.60;;;4.00;99.90;;;;;;4960428;28;20438;-84
2024/03/25 02:30:34;;;;;;;0.60;0.60;;;4.00;99.90;;;;;;4960167;28;20202;-83
2024/03/25 02:33:01;;;;;;;0.50;0.50;;;4.00;99.90;;;;;;4960124;28;20194;-83
2024/03/25 02:35:27;;;;;;;0.50;0.40;;;4.00;99.90;;;;;;4960357;28;20217;-84
2024/03/25 02:37:54;;;;;;;0.50;0.40;;;3.90;99.90;;;;;;4960910;28;20218;-83
2024/03/25 02:40:22;;;;;;;0.50;0.40;;;3.90;99.90;;;;;;4961112;28;20218;-83
2024/03/25 02:42:49;;;;;;;0.98;0.98;;;3.90;99.90;;;;;;4961123;28;20249;-83
2024/03/25 02:45:16;;;;;;;0.50;0.40;;;3.90;99.90;;;;;;4961179;28;20204;-83
2024/03/25 02:47:44;;;;;;;0.98;0.98;;;3.90;99.90;;;;;;4961410;28;20214;-83
2024/03/25 02:50:10;;;;;;;0.50;0.40;;;3.90;99.90;;;;;;4960686;28;20221;-83
2024/03/25 02:52:36;;;;;;;15.03;2.40;;;3.80;99.90;;;;;;4961485;28;20195;-83
2024/03/25 02:55:02;;;;;;;0.50;0.40;;;3.80;99.90;;;;;;4961314;28;20574;-83
2024/03/25 02:57:29;;;;;;;0.50;0.50;;;3.80;99.90;;;;;;4961276;28;20214;-82
2024/03/25 02:59:55;;;;;;;1.70;0.70;;;3.80;99.90;;;;;;4961006;28;20438;-83
2024/03/25 03:02:23;;;;;;;5.07;2.37;;;3.80;99.90;;;;;;4961052;28;20224;-83
2024/03/25 03:04:49;;;;;;;0.60;0.60;;;3.80;99.90;;;;;;4960491;28;20449;-83
2024/03/25 03:07:15;;;;;;;0.73;0.73;;;3.70;99.90;;;;;;4961394;28;20652;-83
2024/03/25 03:09:42;;;;;;;0.68;0.68;;;3.70;99.90;;;;;;4961456;28;20205;-83
2024/03/25 03:12:09;;;;;;;0.95;0.95;;;3.70;99.90;;;;;;4960778;28;20222;-83
2024/03/25 03:14:34;;;;;;;2.05;1.77;;;3.70;99.90;;;;;;4961665;28;20210;-83
2024/03/25 03:17:04;;;;;;;1.13;1.13;;;3.80;99.90;;;;;;4960937;28;20198;-83
2024/03/25 03:19:32;;;;;;;1.33;1.15;;;3.80;99.90;;;;;;4961237;28;20199;-83
2024/03/25 03:21:58;;;;;;;0.50;0.43;;;3.80;99.90;;;;;;4960886;28;20221;-82
2024/03/25 03:24:24;;;;;;;0.68;0.68;;;3.80;99.90;;;;;;4961252;28;20205;-83
2024/03/25 03:26:51;;;;;;;44.80;3.13;;;3.80;99.90;;;;;;4961535;28;20204;-83
2024/03/25 03:29:18;;;;;;;1.58;1.48;;;3.90;99.90;;;;;;4961494;28;20198;-83
2024/03/25 03:31:45;;;;;;;0.50;0.50;;;3.90;99.90;;;;;;4961410;28;20250;-83
2024/03/25 03:34:10;;;;;;;1.45;1.35;;;4.00;99.90;;;;;;4961255;28;20737;-83
2024/03/25 03:36:40;;;;;;;0.50;0.40;;;4.00;99.90;;;;;;4961903;28;20205;-83
2024/03/25 03:39:08;;;;;;;0.50;0.50;;;4.00;99.90;;;;;;4971541;28;20242;-82
2024/03/25 03:41:35;;;;;;;0.50;0.40;;;4.00;99.90;;;;;;4976155;28;20214;-83
2024/03/25 03:44:01;;;;;;;0.50;0.50;;;4.00;99.90;;;;;;4971704;28;20205;-81
2024/03/25 03:46:28;;;;;;;0.50;0.50;;;4.00;99.90;;;;;;4981959;28;20182;-82
2024/03/25 03:48:53;;;;;;;0.50;0.50;;;4.10;99.90;;;;;;4981640;28;20237;-81
2024/03/25 03:51:20;;;;;;;0.50;0.40;;;4.10;99.90;;;;;;4981497;28;20191;-82
2024/03/25 03:53:47;;;;;;;0.50;0.50;;;4.20;99.90;;;;;;4971305;28;20198;-81
2024/03/25 03:56:14;;;;;;;0.50;0.40;;;4.20;99.90;;;;;;4958169;28;20222;-81
2024/03/25 03:58:40;;;;;;;0.50;0.50;;;4.20;99.90;;;;;;4958250;28;20462;-81
2024/03/25 04:01:15;;;;;;;0.50;0.40;;;4.30;99.90;;;;;;4957871;28;20215;-82
2024/03/25 04:03:41;;;;;;;0.50;0.40;;;4.30;99.90;;;;;;4958308;28;20202;-82
2024/03/25 04:06:12;;;;;;;0.50;0.40;;;4.30;99.90;;;;;;4957881;28;20199;-81
2024/03/25 04:08:38;;;;;;;1.58;1.48;;;4.40;99.90;;;;;;4957770;28;20218;-83
2024/03/25 04:11:08;;;;;;;0.50;0.50;;;4.40;99.90;;;;;;4957441;28;20190;-81
2024/03/25 04:13:34;;;;;;;1.63;1.52;;;4.40;99.90;;;;;;4957107;28;20965;-82
2024/03/25 04:16:04;;;;;;;0.50;0.40;;;4.40;99.90;;;;;;4957846;29;20629;-82
2024/03/25 04:18:31;;;;;;;1.45;1.35;;;4.40;99.90;;;;;;4957202;28;20258;-81
2024/03/25 04:20:58;;;;;;;0.80;0.77;;;4.40;99.90;;;;;;4957389;28;20228;-81
2024/03/25 04:23:24;;;;;;;0.50;0.40;;;4.40;99.90;;;;;;4956825;28;20199;-82
2024/03/25 04:25:53;;;;;;;1.37;1.27;;;4.40;99.90;;;;;;4956859;28;20250;-81
2024/03/25 04:28:22;;;;;;;1.23;1.15;;;4.40;99.90;;;;;;4956319;28;20549;-81
2024/03/25 04:30:52;;;;;;;0.55;0.47;;;4.50;99.90;;;;;;4956654;28;20222;-82
2024/03/25 04:33:18;;;;;;;1.40;0.80;;;4.50;99.90;;;;;;4956361;28;20670;-81
2024/03/25 04:35:46;;;;;;;1.10;1.00;;;4.40;99.90;;;;;;4956759;28;20190;-82
